createdAt,value
2019-04-30T00:00:34.724Z,9.70
2019-04-30T00:03:11.659Z,9.70
2019-04-30T00:05:41.443Z,9.60
2019-04-30T00:08:10.447Z,9.50
2019-04-30T00:10:41.307Z,9.50
2019-04-30T00:13:10.517Z,9.50
2019-04-30T00:15:40.095Z,9.40
2019-04-30T00:18:09.878Z,9.40
2019-04-30T00:20:38.755Z,9.40
2019-04-30T00:23:07.282Z,9.40
2019-04-30T00:25:35.852Z,9.40
2019-04-30T00:28:08.780Z,9.30
2019-04-30T00:30:39.252Z,9.30
2019-04-30T00:33:06.773Z,9.20
2019-04-30T00:35:35.679Z,9.20
2019-04-30T00:38:05.098Z,9.10
2019-04-30T00:40:35.182Z,9.10
2019-04-30T00:43:08.064Z,9.10
2019-04-30T00:45:35.367Z,9.10
2019-04-30T00:48:06.002Z,9.00
2019-04-30T00:50:37.259Z,9.00
2019-04-30T00:53:11.794Z,9.00
2019-04-30T00:55:38.127Z,8.90
2019-04-30T00:58:05.903Z,8.90
2019-04-30T01:00:41.704Z,8.80
2019-04-30T01:03:22.753Z,8.80
2019-04-30T01:05:51.671Z,8.70
2019-04-30T01:08:21.052Z,8.70
2019-04-30T01:10:50.573Z,8.70
2019-04-30T01:13:19.466Z,8.70
2019-04-30T01:15:51.340Z,8.60
2019-04-30T01:18:19.270Z,8.60
2019-04-30T01:20:48.774Z,8.60
2019-04-30T01:23:17.379Z,8.60
2019-04-30T01:25:49.977Z,8.60
2019-04-30T01:28:19.997Z,8.50
2019-04-30T01:30:47.004Z,8.50
2019-04-30T01:33:19.013Z,8.50
2019-04-30T01:35:48.778Z,8.50
2019-04-30T01:38:18.881Z,8.40
2019-04-30T01:40:51.043Z,8.40
2019-04-30T01:43:23.107Z,8.50
2019-04-30T01:45:48.843Z,8.40
2019-04-30T01:48:19.287Z,8.40
2019-04-30T01:50:48.855Z,8.40
2019-04-30T01:53:18.638Z,8.40
2019-04-30T01:56:09.251Z,8.30
2019-04-30T01:58:51.317Z,8.30
2019-04-30T02:01:22.170Z,8.30
2019-04-30T02:03:50.530Z,8.30
2019-04-30T02:06:19.682Z,8.20
2019-04-30T02:08:49.365Z,8.20
2019-04-30T02:11:18.987Z,8.20
2019-04-30T02:13:49.168Z,8.20
2019-04-30T02:16:18.690Z,8.20
2019-04-30T02:18:49.528Z,8.10
2019-04-30T02:21:19.531Z,8.00
2019-04-30T02:23:49.352Z,8.00
2019-04-30T02:26:18.712Z,7.90
2019-04-30T02:28:49.335Z,7.90
2019-04-30T02:31:19.471Z,7.90
2019-04-30T02:33:50.776Z,7.90
2019-04-30T02:36:44.368Z,7.90
2019-04-30T02:39:14.099Z,7.90
2019-04-30T02:41:43.374Z,7.90
2019-04-30T02:44:13.474Z,7.80
2019-04-30T02:46:45.434Z,7.80
2019-04-30T02:49:14.597Z,7.80
2019-04-30T02:51:43.761Z,7.80
2019-04-30T02:54:22.936Z,7.70
2019-04-30T02:56:53.504Z,7.70
2019-04-30T02:59:21.960Z,7.60
2019-04-30T03:01:50.631Z,7.50
2019-04-30T03:04:19.785Z,7.50
2019-04-30T03:06:50.267Z,7.50
2019-04-30T03:09:20.244Z,7.40
2019-04-30T03:11:49.948Z,7.40
2019-04-30T03:14:20.064Z,7.40
2019-04-30T03:17:04.959Z,7.40
2019-04-30T03:19:43.778Z,7.40
2019-04-30T03:22:20.354Z,7.30
2019-04-30T03:24:50.114Z,7.30
2019-04-30T03:27:21.065Z,7.30
2019-04-30T03:29:50.285Z,7.30
2019-04-30T03:32:22.195Z,7.30
2019-04-30T03:34:51.553Z,7.30
2019-04-30T03:37:19.907Z,7.30
2019-04-30T03:39:49.360Z,7.30
2019-04-30T03:42:19.844Z,7.30
2019-04-30T03:44:49.637Z,7.30
2019-04-30T03:47:20.145Z,7.20
2019-04-30T03:49:49.888Z,7.20
2019-04-30T03:52:19.730Z,7.20
2019-04-30T03:54:49.427Z,7.20
2019-04-30T03:57:20.582Z,7.20
2019-04-30T03:59:49.917Z,7.20
2019-04-30T04:02:40.263Z,7.20
2019-04-30T04:05:23.447Z,7.20
2019-04-30T04:08:19.588Z,7.20
2019-04-30T04:11:10.130Z,7.20
2019-04-30T04:13:40.092Z,7.10
2019-04-30T04:16:09.637Z,7.10
2019-04-30T04:18:40.254Z,7.10
2019-04-30T04:21:16.050Z,7.10
2019-04-30T04:23:39.984Z,7.10
2019-04-30T04:26:09.397Z,7.00
2019-04-30T04:28:43.066Z,7.00
2019-04-30T04:31:09.543Z,6.90
2019-04-30T04:33:39.511Z,6.90
2019-04-30T04:36:09.173Z,6.90
2019-04-30T04:38:40.319Z,6.90
2019-04-30T04:41:10.382Z,6.80
2019-04-30T04:43:40.171Z,6.80
2019-04-30T04:46:09.305Z,6.90
2019-04-30T04:48:39.461Z,6.90
2019-04-30T04:51:19.739Z,6.90
2019-04-30T04:53:40.214Z,6.80
2019-04-30T04:56:10.087Z,6.80
2019-04-30T04:58:40.366Z,6.80
2019-04-30T05:01:11.710Z,6.70
2019-04-30T05:03:39.970Z,6.70
2019-04-30T05:06:11.410Z,6.70
2019-04-30T05:08:39.663Z,6.70
2019-04-30T05:11:09.587Z,6.70
2019-04-30T05:13:38.933Z,6.70
2019-04-30T05:16:09.092Z,6.70
2019-04-30T05:18:39.095Z,6.70
2019-04-30T05:21:08.860Z,6.80
2019-04-30T05:23:39.603Z,6.80
2019-04-30T05:26:22.652Z,6.80
2019-04-30T05:28:52.975Z,6.80
2019-04-30T05:31:22.130Z,6.70
2019-04-30T05:33:52.542Z,6.70
2019-04-30T05:36:21.530Z,6.70
2019-04-30T05:38:50.771Z,6.70
2019-04-30T05:41:20.045Z,6.70
2019-04-30T05:43:48.993Z,6.70
2019-04-30T05:46:19.644Z,6.70
2019-04-30T05:48:49.530Z,6.70
2019-04-30T05:51:19.370Z,6.70
2019-04-30T05:53:49.203Z,6.70
2019-04-30T05:56:19.326Z,6.70
2019-04-30T05:58:49.436Z,6.70
2019-04-30T06:01:24.091Z,6.80
2019-04-30T06:04:00.595Z,6.80
2019-04-30T06:06:33.651Z,6.80
2019-04-30T06:09:18.730Z,6.80
2019-04-30T06:12:11.446Z,6.80
2019-04-30T06:14:53.351Z,6.90
2019-04-30T06:17:29.369Z,6.90
2019-04-30T06:20:00.880Z,7.00
2019-04-30T06:22:32.948Z,7.00
2019-04-30T06:25:11.335Z,7.10
2019-04-30T06:27:48.824Z,7.20
2019-04-30T06:30:25.251Z,7.20
2019-04-30T06:32:59.215Z,7.30
2019-04-30T06:35:38.832Z,7.30
2019-04-30T06:38:11.728Z,7.40
2019-04-30T06:40:49.589Z,7.50
2019-04-30T06:43:24.005Z,7.60
2019-04-30T06:45:55.185Z,7.80
2019-04-30T06:48:31.716Z,8.00
2019-04-30T06:51:10.545Z,8.20
2019-04-30T06:53:51.262Z,8.60
2019-04-30T06:56:22.424Z,8.90
2019-04-30T06:58:54.224Z,9.30
2019-04-30T07:01:33.590Z,9.60
2019-04-30T07:04:05.256Z,9.90
2019-04-30T07:06:43.877Z,10.20
2019-04-30T07:09:43.620Z,10.50
2019-04-30T07:12:25.447Z,10.80
2019-04-30T07:14:49.430Z,11.20
2019-04-30T07:17:21.083Z,11.40
2019-04-30T07:19:59.691Z,11.70
2019-04-30T07:22:39.730Z,12.00
2019-04-30T07:25:04.718Z,12.30
2019-04-30T07:27:40.814Z,12.60
2019-04-30T07:30:15.565Z,12.80
2019-04-30T07:32:52.737Z,13.00
2019-04-30T07:35:26.490Z,13.30
2019-04-30T07:38:04.984Z,13.40
2019-04-30T07:40:36.107Z,13.70
2019-04-30T07:43:11.487Z,13.90
2019-04-30T07:45:43.254Z,14.00
2019-04-30T07:48:15.742Z,14.20
2019-04-30T07:50:52.052Z,14.40
2019-04-30T07:53:24.964Z,14.40
2019-04-30T07:55:56.281Z,14.40
2019-04-30T07:58:33.255Z,14.60
2019-04-30T08:01:04.907Z,14.80
2019-04-30T08:04:00.733Z,14.80
2019-04-30T08:06:39.750Z,14.90
2019-04-30T08:09:11.942Z,15.00
2019-04-30T08:11:46.712Z,15.00
2019-04-30T08:14:21.226Z,15.00
2019-04-30T08:16:59.500Z,15.10
2019-04-30T08:19:31.799Z,15.20
2019-04-30T08:22:03.728Z,15.20
2019-04-30T08:24:35.491Z,15.30
2019-04-30T08:27:09.692Z,15.50
2019-04-30T08:29:41.362Z,15.70
2019-04-30T08:32:19.093Z,15.90
2019-04-30T08:34:51.228Z,16.10
2019-04-30T08:37:22.772Z,16.30
2019-04-30T08:39:57.271Z,16.40
2019-04-30T08:42:33.936Z,16.60
2019-04-30T08:45:09.530Z,16.60
2019-04-30T08:47:49.246Z,16.70
2019-04-30T08:50:21.433Z,16.80
2019-04-30T08:52:54.017Z,16.90
2019-04-30T08:55:30.367Z,17.00
2019-04-30T08:58:11.995Z,17.20
2019-04-30T09:00:39.815Z,17.20
2019-04-30T09:03:11.413Z,17.30
2019-04-30T09:06:00.411Z,17.50
2019-04-30T09:08:35.237Z,17.60
2019-04-30T09:11:22.097Z,17.80
2019-04-30T09:13:44.792Z,17.90
2019-04-30T09:16:18.832Z,18.00
2019-04-30T09:18:53.871Z,18.10
2019-04-30T09:21:25.824Z,18.30
2019-04-30T09:24:01.173Z,18.40
2019-04-30T09:26:35.921Z,18.50
2019-04-30T09:29:09.320Z,18.70
2019-04-30T09:31:41.726Z,18.80
2019-04-30T09:34:17.516Z,18.90
2019-04-30T09:36:55.610Z,19.10
2019-04-30T09:39:29.539Z,19.30
2019-04-30T09:42:01.081Z,19.50
2019-04-30T09:44:39.122Z,19.70
2019-04-30T09:47:11.031Z,20.00
2019-04-30T09:49:42.427Z,20.40
2019-04-30T09:52:19.271Z,20.60
2019-04-30T09:54:51.179Z,21.00
2019-04-30T09:57:23.168Z,21.30
2019-04-30T09:59:56.065Z,21.40
2019-04-30T10:02:29.108Z,21.70
2019-04-30T10:05:01.325Z,22.10
2019-04-30T10:07:35.909Z,22.70
2019-04-30T10:10:09.520Z,23.00
2019-04-30T10:12:42.437Z,23.40
2019-04-30T10:15:30.966Z,23.40
2019-04-30T10:18:06.882Z,23.70
2019-04-30T10:20:42.762Z,23.90
2019-04-30T10:23:19.688Z,23.30
2019-04-30T10:25:54.938Z,23.00
2019-04-30T10:28:26.455Z,23.10
2019-04-30T10:31:05.652Z,23.50
2019-04-30T10:33:44.211Z,24.00
2019-04-30T10:36:16.714Z,23.90
2019-04-30T10:38:49.539Z,24.40
2019-04-30T10:41:23.949Z,24.60
2019-04-30T10:43:59.721Z,24.80
2019-04-30T10:46:31.909Z,25.00
2019-04-30T10:49:09.083Z,25.00
2019-04-30T10:51:47.530Z,25.10
2019-04-30T10:54:26.136Z,25.30
2019-04-30T10:56:52.644Z,25.40
2019-04-30T10:59:26.158Z,25.10
2019-04-30T11:02:01.056Z,24.40
2019-04-30T11:04:40.112Z,24.70
2019-04-30T11:07:12.096Z,24.90
2019-04-30T11:09:44.158Z,25.10
2019-04-30T11:12:15.958Z,25.30
2019-04-30T11:14:49.548Z,25.60
2019-04-30T11:17:21.485Z,25.80
2019-04-30T11:19:58.977Z,25.60
2019-04-30T11:22:30.516Z,25.50
2019-04-30T11:25:04.836Z,25.40
2019-04-30T11:27:36.911Z,25.40
2019-04-30T11:30:20.407Z,25.30
2019-04-30T11:32:48.258Z,24.90
2019-04-30T11:35:23.484Z,24.50
2019-04-30T11:37:56.274Z,24.60
2019-04-30T11:40:36.843Z,24.60
2019-04-30T11:43:08.125Z,24.70
2019-04-30T11:46:25.577Z,24.60
2019-04-30T11:48:58.693Z,24.90
2019-04-30T11:51:29.915Z,25.00
2019-04-30T11:54:01.780Z,25.30
2019-04-30T11:56:33.286Z,25.30
2019-04-30T11:59:04.820Z,25.30
2019-04-30T12:01:44.367Z,25.40
2019-04-30T12:04:19.044Z,25.20
2019-04-30T12:06:53.543Z,25.30
2019-04-30T12:09:44.742Z,25.40
2019-04-30T12:12:18.921Z,25.20
2019-04-30T12:15:06.672Z,25.00
2019-04-30T12:17:41.117Z,24.80
2019-04-30T12:20:14.963Z,24.90
2019-04-30T12:22:50.466Z,25.00
2019-04-30T12:25:24.540Z,24.90
2019-04-30T12:27:59.429Z,24.60
2019-04-30T12:30:32.952Z,24.70
2019-04-30T12:33:06.594Z,24.30
2019-04-30T12:35:40.940Z,24.00
2019-04-30T12:38:12.671Z,23.70
2019-04-30T12:40:46.743Z,23.60
2019-04-30T12:43:23.541Z,23.20
2019-04-30T12:46:04.886Z,22.90
2019-04-30T12:48:56.795Z,22.50
2019-04-30T12:51:50.436Z,22.40
2019-04-30T12:54:44.715Z,22.50
2019-04-30T12:57:58.677Z,22.50
2019-04-30T13:00:26.452Z,22.40
2019-04-30T13:02:58.433Z,22.60
2019-04-30T13:05:32.989Z,22.80
2019-04-30T13:08:06.323Z,22.80
2019-04-30T13:10:42.902Z,22.90
2019-04-30T13:13:16.516Z,23.00
2019-04-30T13:15:50.707Z,23.00
2019-04-30T13:18:26.184Z,23.10
2019-04-30T13:21:00.153Z,22.90
2019-04-30T13:23:32.448Z,22.70
2019-04-30T13:26:06.071Z,22.60
2019-04-30T13:28:53.360Z,22.40
2019-04-30T13:31:24.986Z,22.20
2019-04-30T13:34:20.419Z,22.10
2019-04-30T13:36:56.351Z,21.90
2019-04-30T13:39:33.278Z,21.80
2019-04-30T13:42:17.687Z,21.70
2019-04-30T13:44:44.285Z,21.60
2019-04-30T13:47:24.492Z,21.60
2019-04-30T13:49:56.605Z,21.70
2019-04-30T13:52:32.406Z,21.80
2019-04-30T13:55:04.076Z,22.00
2019-04-30T13:57:36.852Z,21.90
2019-04-30T14:00:14.631Z,21.90
2019-04-30T14:03:09.128Z,21.90
2019-04-30T14:05:51.504Z,21.80
2019-04-30T14:08:34.271Z,21.70
2019-04-30T14:11:10.018Z,21.70
2019-04-30T14:13:43.383Z,21.70
2019-04-30T14:16:23.156Z,21.70
2019-04-30T14:18:55.483Z,21.80
2019-04-30T14:21:33.159Z,21.90
2019-04-30T14:23:59.869Z,21.80
2019-04-30T14:26:34.638Z,21.50
2019-04-30T14:29:06.644Z,21.30
2019-04-30T14:31:38.851Z,21.10
2019-04-30T14:34:10.749Z,20.90
2019-04-30T14:36:45.610Z,20.80
2019-04-30T14:39:17.495Z,20.60
2019-04-30T14:41:52.681Z,20.40
2019-04-30T14:44:26.170Z,20.20
2019-04-30T14:47:23.736Z,20.10
2019-04-30T14:50:15.312Z,20.10
2019-04-30T14:53:01.453Z,20.10
2019-04-30T14:55:42.039Z,20.10
2019-04-30T14:58:42.409Z,20.20
2019-04-30T15:01:36.137Z,20.30
2019-04-30T15:04:07.737Z,20.30
2019-04-30T15:06:42.510Z,20.30
2019-04-30T15:09:17.986Z,20.30
2019-04-30T15:11:51.554Z,20.40
2019-04-30T15:14:23.008Z,20.40
2019-04-30T15:16:55.942Z,20.30
2019-04-30T15:19:31.019Z,20.30
2019-04-30T15:22:04.729Z,20.20
2019-04-30T15:24:42.205Z,20.20
2019-04-30T15:27:20.264Z,20.30
2019-04-30T15:29:57.004Z,20.30
2019-04-30T15:32:25.008Z,20.30
2019-04-30T15:34:58.775Z,20.40
2019-04-30T15:37:31.283Z,20.50
2019-04-30T15:40:11.340Z,20.60
2019-04-30T15:42:51.198Z,20.60
2019-04-30T15:45:25.596Z,20.60
2019-04-30T15:47:58.501Z,20.60
2019-04-30T15:50:29.977Z,20.50
2019-04-30T15:53:01.043Z,20.50
2019-04-30T15:55:36.740Z,20.40
2019-04-30T15:58:16.389Z,20.30
2019-04-30T16:00:56.643Z,20.20
2019-04-30T16:03:30.589Z,20.10
2019-04-30T16:06:04.228Z,20.00
2019-04-30T16:08:47.593Z,20.10
2019-04-30T16:11:39.814Z,20.10
2019-04-30T16:14:25.096Z,20.10
2019-04-30T16:17:06.963Z,20.00
2019-04-30T16:19:38.573Z,19.90
2019-04-30T16:22:10.318Z,19.80
2019-04-30T16:24:43.245Z,19.70
2019-04-30T16:27:20.242Z,19.70
2019-04-30T16:29:53.677Z,19.70
2019-04-30T16:32:28.256Z,19.70
2019-04-30T16:35:05.651Z,19.50
2019-04-30T16:37:42.083Z,19.50
2019-04-30T16:40:15.293Z,19.50
2019-04-30T16:42:44.187Z,19.40
2019-04-30T16:45:16.198Z,19.40
2019-04-30T16:47:51.732Z,19.40
2019-04-30T16:50:25.517Z,19.50
2019-04-30T16:53:00.948Z,19.50
2019-04-30T16:55:32.509Z,19.40
2019-04-30T16:58:04.210Z,19.40
2019-04-30T17:00:36.199Z,19.30
2019-04-30T17:03:19.421Z,19.30
2019-04-30T17:06:02.921Z,19.30
2019-04-30T17:08:46.208Z,19.20
2019-04-30T17:11:35.849Z,19.10
2019-04-30T17:14:12.691Z,19.10
2019-04-30T17:16:44.299Z,19.00
2019-04-30T17:19:16.365Z,18.90
2019-04-30T17:21:54.216Z,18.80
2019-04-30T17:24:26.476Z,18.80
2019-04-30T17:26:59.525Z,18.60
2019-04-30T17:29:32.163Z,18.60
2019-04-30T17:32:08.467Z,18.50
2019-04-30T17:34:42.694Z,18.40
2019-04-30T17:37:19.001Z,18.30
2019-04-30T17:39:54.320Z,18.20
2019-04-30T17:42:25.610Z,18.20
2019-04-30T17:45:01.539Z,18.10
2019-04-30T17:47:33.305Z,18.10
2019-04-30T17:50:04.668Z,18.00
2019-04-30T17:52:36.268Z,17.90
2019-04-30T17:55:13.499Z,17.80
2019-04-30T17:57:44.878Z,17.70
2019-04-30T18:00:22.076Z,17.60
2019-04-30T18:02:51.130Z,17.50
2019-04-30T18:05:29.372Z,17.40
2019-04-30T18:08:02.073Z,17.40
2019-04-30T18:10:34.564Z,17.30
2019-04-30T18:13:09.765Z,17.20
2019-04-30T18:15:41.014Z,17.20
2019-04-30T18:18:25.077Z,17.10
2019-04-30T18:21:14.626Z,17.00
2019-04-30T18:23:59.804Z,16.90
2019-04-30T18:26:34.079Z,16.90
2019-04-30T18:29:06.702Z,16.80
2019-04-30T18:31:40.022Z,16.70
2019-04-30T18:34:14.601Z,16.60
2019-04-30T18:36:55.602Z,16.60
2019-04-30T18:39:28.878Z,16.40
2019-04-30T18:42:10.828Z,16.40
2019-04-30T18:44:43.681Z,16.30
2019-04-30T18:47:15.033Z,16.30
2019-04-30T18:49:49.513Z,16.20
2019-04-30T18:52:20.781Z,16.20
2019-04-30T18:54:52.524Z,16.10
2019-04-30T18:57:27.031Z,15.90
2019-04-30T19:00:01.488Z,15.90
2019-04-30T19:02:34.643Z,15.80
2019-04-30T19:05:11.492Z,15.80
2019-04-30T19:07:50.995Z,15.70
2019-04-30T19:10:48.242Z,15.60
2019-04-30T19:13:42.455Z,15.60
2019-04-30T19:16:32.989Z,15.50
2019-04-30T19:19:16.591Z,15.40
2019-04-30T19:21:58.656Z,15.30
2019-04-30T19:24:52.701Z,15.20
2019-04-30T19:27:25.688Z,15.20
2019-04-30T19:30:10.321Z,15.10
2019-04-30T19:32:49.017Z,15.00
2019-04-30T19:35:29.189Z,15.00
2019-04-30T19:38:06.284Z,14.90
2019-04-30T19:40:42.788Z,14.80
2019-04-30T19:43:21.088Z,14.70
2019-04-30T19:45:56.383Z,14.70
2019-04-30T19:48:32.029Z,14.50
2019-04-30T19:51:12.016Z,14.50
2019-04-30T19:53:51.092Z,14.40
2019-04-30T19:56:24.532Z,14.40
2019-04-30T19:59:05.302Z,14.30
2019-04-30T20:01:39.105Z,14.20
2019-04-30T20:04:33.113Z,14.20
2019-04-30T20:06:59.142Z,14.10
2019-04-30T20:09:35.354Z,14.00
2019-04-30T20:12:13.951Z,14.00
2019-04-30T20:14:54.500Z,13.90
2019-04-30T20:17:29.533Z,13.90
2019-04-30T20:20:03.900Z,13.80
2019-04-30T20:22:35.761Z,13.80
2019-04-30T20:25:11.124Z,13.70
2019-04-30T20:27:43.163Z,13.70
2019-04-30T20:30:12.536Z,13.70
2019-04-30T20:32:46.626Z,13.60
2019-04-30T20:35:16.654Z,13.60
2019-04-30T20:38:03.160Z,13.50
2019-04-30T20:40:43.046Z,13.50
2019-04-30T20:43:03.683Z,13.40
2019-04-30T20:45:32.035Z,13.40
2019-04-30T20:48:00.615Z,13.30
2019-04-30T20:50:29.323Z,13.30
2019-04-30T20:52:58.879Z,13.30
2019-04-30T20:55:27.683Z,13.20
2019-04-30T20:57:57.115Z,13.20
2019-04-30T21:00:25.905Z,13.20
2019-04-30T21:02:54.350Z,13.10
2019-04-30T21:05:23.074Z,13.10
2019-04-30T21:07:51.746Z,13.10
2019-04-30T21:10:20.114Z,13.10
2019-04-30T21:12:49.857Z,13.00
2019-04-30T21:15:19.752Z,13.00
2019-04-30T21:17:50.492Z,12.90
2019-04-30T21:20:19.573Z,12.90
2019-04-30T21:22:49.432Z,12.90
2019-04-30T21:25:18.786Z,12.90
2019-04-30T21:27:49.876Z,12.80
2019-04-30T21:30:17.820Z,12.70
2019-04-30T21:33:15.128Z,12.70
2019-04-30T21:35:52.001Z,12.70
2019-04-30T21:38:20.395Z,12.70
2019-04-30T21:40:49.204Z,12.70
2019-04-30T21:43:22.096Z,12.70
2019-04-30T21:45:50.774Z,12.60
2019-04-30T21:48:20.179Z,12.60
2019-04-30T21:50:49.752Z,12.60
2019-04-30T21:53:19.547Z,12.60
2019-04-30T21:55:49.669Z,12.60
2019-04-30T21:58:20.408Z,12.60
2019-04-30T22:01:17.617Z,12.50
2019-04-30T22:03:46.664Z,12.50
2019-04-30T22:06:15.251Z,12.50
2019-04-30T22:08:44.994Z,12.50
2019-04-30T22:11:13.658Z,12.50
2019-04-30T22:13:43.215Z,12.50
2019-04-30T22:16:12.068Z,12.50
2019-04-30T22:18:40.733Z,12.50
2019-04-30T22:21:09.431Z,12.50
2019-04-30T22:23:37.927Z,12.50
2019-04-30T22:26:07.305Z,12.50
2019-04-30T22:28:36.101Z,12.50
2019-04-30T22:31:04.811Z,12.50
2019-04-30T22:33:33.465Z,12.50
2019-04-30T22:36:21.416Z,12.40
2019-04-30T22:39:09.226Z,12.40
2019-04-30T22:41:39.782Z,12.40
2019-04-30T22:44:09.781Z,12.40
2019-04-30T22:46:39.384Z,12.40
2019-04-30T22:49:08.000Z,12.40
2019-04-30T22:51:36.651Z,12.40
2019-04-30T22:54:05.552Z,12.40
2019-04-30T22:56:33.976Z,12.40
2019-04-30T22:59:02.314Z,12.40
2019-04-30T23:01:53.304Z,12.40
2019-04-30T23:04:30.770Z,12.40
2019-04-30T23:06:59.217Z,12.40
2019-04-30T23:09:27.978Z,12.40
2019-04-30T23:11:56.654Z,12.40
2019-04-30T23:14:25.364Z,12.40
2019-04-30T23:16:54.039Z,12.30
2019-04-30T23:19:22.718Z,12.30
2019-04-30T23:21:51.461Z,12.20
2019-04-30T23:24:20.085Z,12.20
2019-04-30T23:26:48.767Z,12.20
2019-04-30T23:29:17.334Z,12.20
2019-04-30T23:31:45.939Z,12.10
2019-04-30T23:34:18.056Z,12.10
2019-04-30T23:36:45.388Z,12.10
2019-04-30T23:39:14.310Z,12.10
2019-04-30T23:41:42.720Z,12.00
2019-04-30T23:44:14.310Z,12.00
2019-04-30T23:46:42.960Z,12.00
2019-04-30T23:49:11.649Z,11.90
2019-04-30T23:51:40.364Z,11.90
2019-04-30T23:54:10.642Z,11.90
2019-04-30T23:56:39.367Z,11.80
2019-04-30T23:59:08.883Z,11.90
